Time;durP1;ratioP1;P1;durP2;ratioP2;P2;SDS_P1;SDS_P2;PMS_P1;PMS_P2;Temp;Humidity;BMP_temperature;BMP_pressure;BME280_temperature;BME280_humidity;BME280_pressure;Samples;Min_cycle;Max_cycle;Signal;HPM_P1;HPM_P2
2021/06/08 00:11:44;;;;;;;5.04;2.38;;;;;;;14.84;65.37;99469.05;372534;141;883021;-58
2021/06/08 00:12:46;;;;;;;7.75;2.57;;;;;;;14.84;65.37;99469.05;365983;147;857693;-58
2021/06/08 00:13:48;;;;;;;7.26;2.55;;;;;;;14.82;65.28;99477.80;364778;146;859191;-59
2021/06/08 00:14:50;;;;;;;6.18;2.63;;;;;;;14.84;64.86;99476.00;366205;147;858555;-59
2021/06/08 00:15:52;;;;;;;8.61;2.57;;;;;;;14.75;64.26;99472.80;366065;147;857292;-59
2021/06/08 00:16:54;;;;;;;7.89;2.87;;;;;;;;;;364349;147;864790;-59
2021/06/08 00:17:55;;;;;;;4.53;2.82;;;;;;;;;;356038;150;857780;-58
2021/06/08 00:18:57;;;;;;;6.36;2.81;;;;;;;;;;364932;146;857218;-59
2021/06/08 00:19:59;;;;;;;5.98;2.72;;;;;;;;;;360849;146;857357;-58
2021/06/08 00:21:01;;;;;;;2.91;2.41;;;;;;;;;;362078;146;858300;-59
2021/06/08 00:22:03;;;;;;;5.26;2.71;;;;;;;;;;365488;146;857693;-59
2021/06/08 00:23:04;;;;;;;6.58;3.00;;;;;;;;;;361096;146;858686;-59
2021/06/08 00:24:07;;;;;;;4.85;2.77;;;;;;;;;;355563;150;857836;-61
2021/06/08 00:25:09;;;;;;;10.48;3.16;;;;;;;;;;366017;146;857479;-59
2021/06/08 00:26:11;;;;;;;7.61;2.71;;;;;;;;;;360707;147;858202;-58
2021/06/08 00:27:13;;;;;;;5.45;2.81;;;;;;;;;;365110;147;858915;-58
2021/06/08 00:28:14;;;;;;;4.99;2.69;;;;;;;;;;366197;146;857401;-59
2021/06/08 00:29:16;;;;;;;10.04;3.20;;;;;;;;;;366222;147;857371;-59
2021/06/08 00:30:18;;;;;;;5.80;3.41;;;;;;;;;;358971;147;857402;-59
2021/06/08 00:31:20;;;;;;;8.16;3.18;;;;;;;;;;357916;147;857724;-58
2021/06/08 00:32:22;;;;;;;3.25;2.89;;;;;;;;;;352593;150;858085;-59
2021/06/08 00:33:23;;;;;;;13.45;3.56;;;;;;;;;;350821;150;857272;-59
2021/06/08 00:34:25;;;;;;;4.45;3.19;;;;;;;;;;357737;150;864749;-59
2021/06/08 00:35:27;;;;;;;3.58;2.95;;;;;;;;;;357611;149;857320;-59
2021/06/08 00:36:29;;;;;;;6.17;3.36;;;;;;;;;;359335;150;864788;-58
2021/06/08 00:37:31;;;;;;;6.76;2.99;;;;;;;;;;360330;149;857323;-58
2021/06/08 00:38:32;;;;;;;6.22;3.51;;;;;;;;;;356891;147;857156;-59
2021/06/08 00:39:34;;;;;;;3.82;2.87;;;;;;;;;;346257;155;857273;-58
2021/06/08 00:40:36;;;;;;;7.01;2.96;;;;;;;;;;353912;150;857339;-58
2021/06/08 00:41:39;;;;;;;6.44;3.11;;;;;;;;;;352502;152;866710;-58
2021/06/08 00:42:40;;;;;;;6.17;3.35;;;;;;;;;;354712;151;865946;-58
2021/06/08 00:43:42;;;;;;;5.19;3.29;;;;;;;;;;357420;147;857207;-59
2021/06/08 00:44:43;;;;;;;3.76;3.14;;;;;;;;;;356137;147;864783;-58
2021/06/08 00:45:45;;;;;;;30.83;3.54;;;;;;;;;;358354;150;860403;-58
2021/06/08 00:46:47;;;;;;;4.64;3.15;;;;;;;;;;357875;147;864976;-58
2021/06/08 00:47:49;;;;;;;6.21;3.39;;;;;;;;;;358137;150;864764;-59
2021/06/08 00:48:50;;;;;;;6.79;3.54;;;;;;;;;;355609;148;864867;-58
2021/06/08 00:49:52;;;;;;;8.45;3.51;;;;;;;;;;362879;148;857270;-59
2021/06/08 00:50:54;;;;;;;5.45;3.35;;;;;;;;;;360639;148;857333;-58
2021/06/08 00:51:55;;;;;;;8.14;3.66;;;;;;;;;;359505;147;857378;-56
2021/06/08 00:52:57;;;;;;;5.04;3.31;;;;;;;;;;356181;150;857187;-58
2021/06/08 00:54:06;;;;;;;6.18;3.59;;;;;;;;;;356295;150;859027;-59
2021/06/08 00:55:02;;;;;;;6.40;3.44;;;;;;;;;;356183;149;858199;-59
2021/06/08 00:56:04;;;;;;;6.71;3.98;;;;;;;;;;359446;150;857691;-57
2021/06/08 00:57:06;;;;;;;6.25;3.57;;;;;;;;;;357890;147;860495;-58
2021/06/08 00:58:08;;;;;;;5.19;3.34;;;;;;;;;;358190;150;857377;-58
2021/06/08 00:59:09;;;;;;;8.38;3.41;;;;;;;;;;359367;150;864994;-58
2021/06/08 01:00:13;;;;;;;5.62;3.21;;;;;;;;;;357812;148;857361;-58
2021/06/08 01:01:14;;;;;;;5.28;3.32;;;;;;;;;;352453;151;859150;-58
2021/06/08 01:02:16;;;;;;;8.44;3.28;;;;;;;;;;358181;148;858442;-58
2021/06/08 01:11:23;;;;;;;6.48;3.71;;;;;;;14.14;67.80;99466.00;370341;141;967779;-58
2021/06/08 01:12:26;;;;;;;4.23;3.37;;;;;;;14.09;67.50;99472.23;366054;147;864851;-59
2021/06/08 01:13:29;;;;;;;7.99;3.20;;;;;;;14.08;67.08;99471.39;363095;146;858642;-58
2021/06/08 01:14:31;;;;;;;4.76;3.71;;;;;;;14.08;67.27;99463.58;365284;147;864931;-58
2021/06/08 01:15:33;;;;;;;6.45;3.27;;;;;;;14.10;67.28;99466.99;366111;147;857271;-58
2021/06/08 01:16:35;;;;;;;10.31;3.51;;;;;;;14.12;67.03;99465.20;366399;146;857249;-59
2021/06/08 01:17:38;;;;;;;5.06;3.39;;;;;;;14.17;67.01;99467.64;364681;147;857307;-58
2021/06/08 01:18:39;;;;;;;6.56;3.28;;;;;;;14.22;66.82;99467.52;361870;146;865807;-59
2021/06/08 01:19:41;;;;;;;7.13;3.24;;;;;;;14.22;66.67;99470.12;366056;147;864875;-58
2021/06/08 01:20:43;;;;;;;4.98;3.44;;;;;;;14.20;65.69;99470.16;363244;147;864918;-58
2021/06/08 01:21:45;;;;;;;9.45;3.59;;;;;;;14.20;65.69;99470.16;361974;146;857296;-59
2021/06/08 01:22:46;;;;;;;4.59;3.29;;;;;;;;;;355140;151;864823;-59
2021/06/08 01:23:48;;;;;;;7.93;4.09;;;;;;;;;;362020;146;864934;-59
2021/06/08 01:24:50;;;;;;;6.07;3.46;;;;;;;;;;363417;146;857417;-58
2021/06/08 01:25:51;;;;;;;8.34;3.18;;;;;;;;;;365632;147;864723;-59
2021/06/08 01:26:53;;;;;;;3.79;3.23;;;;;;;;;;365554;146;857265;-59
2021/06/08 01:27:55;;;;;;;5.41;3.46;;;;;;;;;;366087;147;864962;-58
2021/06/08 01:28:57;;;;;;;8.69;3.64;;;;;;;;;;358213;150;866702;-58
2021/06/08 01:29:59;;;;;;;8.15;3.67;;;;;;;;;;354837;149;859150;-58
2021/06/08 01:31:03;;;;;;;4.63;3.61;;;;;;;;;;358010;150;858583;-58
2021/06/08 01:32:05;;;;;;;6.78;3.88;;;;;;;;;;357323;149;865420;-58
2021/06/08 01:33:07;;;;;;;4.62;3.50;;;;;;;;;;356100;151;857473;-59
2021/06/08 01:34:08;;;;;;;5.60;3.31;;;;;;;;;;359137;149;857488;-59
2021/06/08 01:35:10;;;;;;;8.69;3.31;;;;;;;;;;357872;149;865016;-58
2021/06/08 01:36:13;;;;;;;6.11;3.45;;;;;;;;;;356758;150;857907;-58
2021/06/08 01:37:14;;;;;;;5.05;3.36;;;;;;;;;;357541;149;858082;-59
2021/06/08 01:38:16;;;;;;;6.56;3.63;;;;;;;;;;357641;149;857401;-59
2021/06/08 01:39:17;;;;;;;6.89;3.31;;;;;;;;;;355597;149;865057;-59
2021/06/08 01:40:20;;;;;;;6.83;3.67;;;;;;;;;;355342;149;857402;-58
2021/06/08 01:41:23;;;;;;;8.89;3.54;;;;;;;;;;357784;150;859404;-58
2021/06/08 01:42:24;;;;;;;5.67;3.11;;;;;;;;;;358055;150;858926;-58
2021/06/08 01:43:26;;;;;;;9.16;3.09;;;;;;;;;;357558;149;859485;-58
2021/06/08 01:44:27;;;;;;;4.11;2.57;;;;;;;;;;359146;149;859220;-58
2021/06/08 01:45:29;;;;;;;4.71;2.91;;;;;;;;;;358965;149;857329;-58
2021/06/08 01:46:31;;;;;;;5.65;2.91;;;;;;;;;;357782;149;857787;-57
2021/06/08 01:47:32;;;;;;;8.61;3.26;;;;;;;;;;352498;150;864772;-58
2021/06/08 01:48:34;;;;;;;5.90;2.82;;;;;;;;;;356482;149;859325;-58
2021/06/08 01:49:35;;;;;;;7.64;3.26;;;;;;;;;;358301;150;866209;-58
2021/06/08 01:50:37;;;;;;;3.13;2.66;;;;;;;;;;355200;149;858698;-59
2021/06/08 01:51:46;;;;;;;4.57;3.02;;;;;;;;;;354822;149;864782;-59
2021/06/08 01:53:06;;;;;;;8.29;3.06;;;;;;;;;;352472;150;857245;-59
2021/06/08 01:54:16;;;;;;;6.09;3.13;;;;;;;;;;357067;149;859497;-59
2021/06/08 01:55:25;;;;;;;5.63;2.55;;;;;;;;;;359211;149;865234;-59
2021/06/08 01:56:28;;;;;;;7.78;2.84;;;;;;;;;;356689;149;857454;-59
2021/06/08 01:57:34;;;;;;;3.82;3.05;;;;;;;;;;356395;150;864799;-59
2021/06/08 01:58:45;;;;;;;5.47;3.19;;;;;;;;;;352594;150;858145;-59
2021/06/08 01:59:52;;;;;;;6.85;3.04;;;;;;;;;;356921;149;857960;-60
2021/06/08 02:00:54;;;;;;;10.09;4.03;;;;;;;;;;355888;150;859801;-59
2021/06/08 02:02:01;;;;;;;8.91;2.89;;;;;;;;;;357130;149;859344;-58
2021/06/08 02:03:19;;;;;;;5.06;3.32;;;;;;;;;;352618;152;857726;-59
2021/06/08 02:04:26;;;;;;;7.67;3.16;;;;;;;;;;354490;149;859340;-58
2021/06/08 02:05:29;;;;;;;6.12;3.04;;;;;;;;;;351732;153;857717;-59
2021/06/08 02:06:52;;;;;;;8.61;3.64;;;;;;;;;;352874;150;859339;-59
2021/06/08 02:07:56;;;;;;;6.56;3.38;;;;;;;;;;354845;149;857340;-58
2021/06/08 02:08:59;;;;;;;7.42;3.47;;;;;;;;;;356429;150;857857;-58
2021/06/08 02:10:19;;;;;;;5.53;3.04;;;;;;;;;;356861;149;858854;-59
2021/06/08 02:11:38;;;;;;;6.09;2.94;;;;;;;;;;358269;150;857494;-58
2021/06/08 02:12:40;;;;;;;9.43;2.99;;;;;;;;;;358316;149;857466;-59
2021/06/08 02:13:56;;;;;;;7.88;2.89;;;;;;;;;;353970;150;857672;-59
2021/06/08 02:14:59;;;;;;;6.09;2.93;;;;;;;;;;357878;149;857747;-59
2021/06/08 02:16:21;;;;;;;4.69;3.03;;;;;;;;;;358200;149;859148;-59
2021/06/08 02:17:23;;;;;;;9.42;3.71;;;;;;;;;;358218;150;857357;-59
2021/06/08 02:18:28;;;;;;;8.23;3.23;;;;;;;;;;356771;149;858312;-59
2021/06/08 02:19:29;;;;;;;4.24;3.12;;;;;;;;;;358318;150;857229;-58
2021/06/08 02:20:35;;;;;;;3.98;3.07;;;;;;;;;;351293;152;858910;-56
2021/06/08 02:21:38;;;;;;;9.58;3.15;;;;;;;;;;350811;150;858487;-58
2021/06/08 02:22:40;;;;;;;6.46;2.72;;;;;;;;;;357867;150;857958;-58
2021/06/08 02:23:42;;;;;;;5.43;3.00;;;;;;;;;;357113;149;858057;-57
2021/06/08 02:24:44;;;;;;;6.21;3.32;;;;;;;;;;357609;150;857219;-58
2021/06/08 02:25:46;;;;;;;5.64;2.87;;;;;;;;;;354312;150;864818;-57
2021/06/08 02:26:48;;;;;;;8.38;3.06;;;;;;;;;;348335;152;864878;-58
2021/06/08 02:27:50;;;;;;;3.85;2.95;;;;;;;;;;346911;153;857250;-57
2021/06/08 02:28:52;;;;;;;6.18;3.47;;;;;;;;;;353968;149;857183;-56
2021/06/08 02:29:54;;;;;;;5.69;3.16;;;;;;;;;;352179;150;857272;-57
2021/06/08 02:30:56;;;;;;;6.12;3.17;;;;;;;;;;358345;150;858838;-60
2021/06/08 02:31:57;;;;;;;5.54;3.32;;;;;;;;;;358422;149;857325;-60
2021/06/08 02:32:59;;;;;;;10.01;3.94;;;;;;;;;;358255;150;865503;-59
2021/06/08 02:34:01;;;;;;;4.96;3.48;;;;;;;;;;354487;149;867105;-59
2021/06/08 02:35:03;;;;;;;4.66;3.13;;;;;;;;;;354031;149;857497;-59
2021/06/08 02:36:05;;;;;;;7.99;3.12;;;;;;;;;;352622;149;857366;-59
2021/06/08 02:37:10;;;;;;;6.44;3.27;;;;;;;;;;357329;149;857657;-60
2021/06/08 02:38:10;;;;;;;5.46;2.91;;;;;;;;;;356874;150;864108;-60
2021/06/08 02:39:12;;;;;;;6.18;2.97;;;;;;;;;;357077;149;856341;-58
2021/06/08 02:40:14;;;;;;;6.54;2.86;;;;;;;;;;358634;149;864034;-59
2021/06/08 02:41:16;;;;;;;6.64;3.33;;;;;;;;;;358044;150;857147;-59
2021/06/08 02:42:18;;;;;;;6.78;3.26;;;;;;;;;;357186;149;864441;-59
2021/06/08 02:43:20;;;;;;;8.63;3.53;;;;;;;;;;358199;149;864011;-60
2021/06/08 02:44:22;;;;;;;8.54;3.61;;;;;;;;;;353164;150;856123;-60
2021/06/08 02:45:23;;;;;;;6.00;2.84;;;;;;;;;;357350;149;864445;-59
2021/06/08 02:46:25;;;;;;;3.51;2.83;;;;;;;;;;358204;149;856229;-60
2021/06/08 02:47:27;;;;;;;4.58;3.52;;;;;;;;;;352804;150;856461;-59
2021/06/08 02:48:28;;;;;;;5.29;3.28;;;;;;;;;;346954;152;856337;-58
2021/06/08 02:49:30;;;;;;;4.44;3.21;;;;;;;;;;344205;153;864813;-60
2021/06/08 02:50:32;;;;;;;6.13;3.36;;;;;;;;;;346049;152;857499;-60
2021/06/08 02:51:34;;;;;;;3.84;3.19;;;;;;;;;;348215;153;857410;-59
2021/06/08 02:52:36;;;;;;;14.27;3.35;;;;;;;;;;355765;150;865760;-59
2021/06/08 02:53:37;;;;;;;5.76;3.56;;;;;;;;;;336098;156;858552;-61
2021/06/08 02:54:39;;;;;;;5.04;3.66;;;;;;;;;;345929;152;857987;-57
2021/06/08 02:55:41;;;;;;;8.41;5.08;;;;;;;;;;356401;149;857359;-60
2021/06/08 02:56:42;;;;;;;4.11;3.71;;;;;;;;;;354928;149;865009;-60
2021/06/08 02:57:44;;;;;;;5.28;3.42;;;;;;;;;;353414;149;857603;-60
2021/06/08 02:58:46;;;;;;;5.78;3.69;;;;;;;;;;356515;149;857095;-59
2021/06/08 02:59:49;;;;;;;5.17;3.59;;;;;;;;;;356493;149;857249;-58
2021/06/08 03:00:51;;;;;;;5.04;3.74;;;;;;;;;;353672;150;866525;-57
2021/06/08 03:01:53;;;;;;;4.26;3.84;;;;;;;;;;357161;149;857188;-60
2021/06/08 03:02:55;;;;;;;5.96;3.54;;;;;;;;;;358004;150;866557;-60
2021/06/08 03:03:58;;;;;;;5.06;3.94;;;;;;;;;;357335;149;866664;-59
2021/06/08 03:05:04;;;;;;;5.99;3.81;;;;;;;;;;358580;149;857408;-57
2021/06/08 03:06:10;;;;;;;6.87;3.79;;;;;;;;;;357694;149;858619;-60
2021/06/08 03:07:12;;;;;;;5.82;3.25;;;;;;;;;;356830;149;860490;-59
2021/06/08 03:08:34;;;;;;;8.89;3.69;;;;;;;;;;356235;150;858669;-59
2021/06/08 03:09:46;;;;;;;5.23;3.75;;;;;;;;;;357051;149;857257;-58
2021/06/08 03:10:49;;;;;;;8.17;3.91;;;;;;;;;;357366;149;858922;-58
2021/06/08 03:11:51;;;;;;;5.09;4.59;;;;;;;;;;358041;149;859879;-58
2021/06/08 03:12:55;;;;;;;4.65;4.04;;;;;;;;;;353065;149;857190;-58
2021/06/08 03:13:56;;;;;;;4.82;3.85;;;;;;;;;;353918;150;857121;-59
2021/06/08 03:14:58;;;;;;;7.47;4.48;;;;;;;;;;356454;149;859639;-58
2021/06/08 03:16:00;;;;;;;6.79;3.86;;;;;;;;;;357147;150;857458;-59
2021/06/08 03:17:02;;;;;;;9.19;4.52;;;;;;;;;;356129;149;857252;-60
2021/06/08 03:18:04;;;;;;;5.55;4.03;;;;;;;;;;355500;149;857366;-59
2021/06/08 03:19:06;;;;;;;8.07;3.89;;;;;;;;;;354937;150;865648;-58
2021/06/08 03:20:13;;;;;;;6.30;3.71;;;;;;;;;;354721;149;857434;-57
2021/06/08 03:21:17;;;;;;;4.31;3.76;;;;;;;;;;356206;149;864935;-58
2021/06/08 03:22:19;;;;;;;6.91;4.43;;;;;;;;;;357758;149;856488;-59
2021/06/08 03:23:21;;;;;;;5.21;4.01;;;;;;;;;;356478;149;867081;-59
2021/06/08 03:24:24;;;;;;;4.44;3.65;;;;;;;;;;354195;150;859542;-59
2021/06/08 03:31:03;;;;;;;7.82;5.12;;;;;;;15.31;69.19;99519.63;370693;142;880478;-60
2021/06/08 03:32:06;;;;;;;5.30;3.99;;;;;;;15.31;69.19;99519.63;363954;146;858361;-60
2021/06/08 03:33:08;;;;;;;5.82;4.95;;;;;;;15.31;68.67;99525.71;363373;147;857302;-60
2021/06/08 03:34:14;;;;;;;6.52;4.23;;;;;;;15.35;68.53;99526.44;362378;147;857336;-59
2021/06/08 03:35:15;;;;;;;7.37;4.44;;;;;;;15.38;68.49;99528.11;365300;146;864938;-60
2021/06/08 03:36:19;;;;;;;4.27;3.66;;;;;;;15.36;68.65;99528.14;363192;147;857378;-64
2021/06/08 03:37:21;;;;;;;4.33;3.92;;;;;;;15.32;68.35;99531.77;361249;146;865174;-60
2021/06/08 03:38:24;;;;;;;5.65;4.96;;;;;;;15.35;68.57;99531.66;368707;146;864751;-59
2021/06/08 03:39:25;;;;;;;6.59;5.29;;;;;;;15.35;68.57;99531.66;366410;146;858503;-63
2021/06/08 03:40:29;;;;;;;9.57;5.22;;;;;;;15.49;69.39;99520.76;362918;146;857921;-59
2021/06/08 03:41:31;;;;;;;7.65;4.85;;;;;;;15.53;69.33;99527.57;358204;150;862275;-61
2021/06/08 03:42:32;;;;;;;10.67;5.48;;;;;;;15.61;69.49;99529.92;358289;150;857276;-58
2021/06/08 03:43:35;;;;;;;8.17;5.64;;;;;;;15.69;69.43;99535.72;363622;146;865020;-59
2021/06/08 03:44:37;;;;;;;6.47;4.61;;;;;;;15.80;69.29;99532.70;365554;147;859609;-59
2021/06/08 03:45:38;;;;;;;4.54;4.01;;;;;;;15.90;68.71;99530.66;364954;147;857364;-57
2021/06/08 03:46:40;;;;;;;12.08;4.47;;;;;;;15.98;67.87;99530.39;365797;146;866658;-59
2021/06/08 03:47:43;;;;;;;7.53;4.29;;;;;;;16.02;67.75;99531.98;365515;147;859005;-59
2021/06/08 03:48:45;;;;;;;8.19;5.86;;;;;;;15.95;67.77;99525.28;363921;146;866569;-60
2021/06/08 03:49:47;;;;;;;7.74;4.95;;;;;;;15.85;68.67;99522.11;360425;147;857426;-62
2021/06/08 03:50:49;;;;;;;7.21;5.35;;;;;;;;;;359127;150;864921;-60
2021/06/08 03:51:52;;;;;;;7.58;5.05;;;;;;;;;;358233;148;857365;-62
2021/06/08 03:52:55;;;;;;;7.39;4.61;;;;;;;;;;357932;148;857698;-59
2021/06/08 03:53:57;;;;;;;8.84;5.33;;;;;;;;;;358760;147;865041;-58
2021/06/08 03:54:59;;;;;;;7.31;5.71;;;;;;;;;;358798;149;859220;-57
2021/06/08 03:56:01;;;;;;;9.83;5.79;;;;;;;;;;359290;149;858522;-57
2021/06/08 03:57:03;;;;;;;9.64;5.91;;;;;;;;;;358091;148;857349;-61
2021/06/08 03:58:11;;;;;;;8.27;5.03;;;;;;;;;;356843;147;857809;-58
2021/06/08 03:59:09;;;;;;;7.10;5.00;;;;;;;;;;357457;150;858051;-60
2021/06/08 04:00:14;;;;;;;7.62;5.68;;;;;;;;;;357117;147;859061;-59
2021/06/08 04:01:15;;;;;;;8.56;5.73;;;;;;;;;;357032;150;866521;-58
2021/06/08 04:02:17;;;;;;;6.45;5.21;;;;;;;;;;358704;148;859286;-58
2021/06/08 04:03:19;;;;;;;9.87;5.78;;;;;;;;;;359089;149;857483;-60
2021/06/08 04:04:21;;;;;;;7.48;5.51;;;;;;;;;;358545;149;857890;-57
2021/06/08 04:05:23;;;;;;;8.03;5.85;;;;;;;;;;358092;148;857686;-59
2021/06/08 04:06:25;;;;;;;8.21;5.93;;;;;;;;;;359346;147;857331;-60
2021/06/08 04:07:27;;;;;;;7.01;5.90;;;;;;;;;;353683;150;857432;-60
2021/06/08 04:08:28;;;;;;;6.60;5.80;;;;;;;;;;361237;147;857641;-61
2021/06/08 04:09:30;;;;;;;6.22;5.62;;;;;;;;;;357120;150;857276;-61
2021/06/08 04:31:16;;;;;;;10.63;6.29;;;;;;;17.28;65.82;99543.62;373798;142;881369;-57
2021/06/08 04:51:33;;;;;;;9.90;5.14;;;;;;;17.76;63.96;99528.48;369151;142;881726;-57
2021/06/08 04:52:34;;;;;;;7.33;5.84;;;;;;;17.66;64.21;99530.64;363444;147;858100;-57
2021/06/08 04:53:37;;;;;;;7.93;5.88;;;;;;;17.68;64.56;99535.83;362626;147;859043;-56
2021/06/08 04:54:39;;;;;;;10.45;5.72;;;;;;;17.65;64.03;99531.55;360994;146;865089;-56
2021/06/08 04:55:41;;;;;;;7.31;5.43;;;;;;;;;;359555;147;857461;-55
2021/06/08 04:56:43;;;;;;;6.31;5.26;;;;;;;;;;359694;147;857595;-58
2021/06/08 04:57:45;;;;;;;6.99;5.53;;;;;;;;;;361090;147;859272;-58
2021/06/08 04:58:47;;;;;;;7.72;5.81;;;;;;;;;;359995;147;857941;-57
2021/06/08 04:59:49;;;;;;;9.19;5.64;;;;;;;;;;362009;147;859082;-57
2021/06/08 05:00:54;;;;;;;13.69;6.35;;;;;;;;;;361497;147;859905;-58
2021/06/08 05:01:58;;;;;;;7.51;5.58;;;;;;;;;;359340;147;864107;-57
2021/06/08 05:03:07;;;;;;;7.55;5.52;;;;;;;;;;361960;146;858989;-57
2021/06/08 05:04:11;;;;;;;8.71;5.86;;;;;;;;;;350737;153;859756;-58
2021/06/08 05:05:13;;;;;;;11.24;5.78;;;;;;;;;;361042;146;857228;-57
2021/06/08 05:06:16;;;;;;;7.98;5.63;;;;;;;;;;365616;147;857785;-57
2021/06/08 05:07:18;;;;;;;9.07;5.79;;;;;;;;;;362771;147;856657;-57
2021/06/08 05:08:21;;;;;;;8.99;5.79;;;;;;;;;;362772;146;857377;-57
2021/06/08 05:09:24;;;;;;;8.27;5.62;;;;;;;;;;360956;147;857213;-57
2021/06/08 05:10:27;;;;;;;7.76;5.39;;;;;;;;;;356923;150;860474;-57
2021/06/08 05:11:36;;;;;;;6.16;5.54;;;;;;;;;;357351;148;858694;-57
2021/06/08 05:12:38;;;;;;;7.98;6.11;;;;;;;;;;350738;150;858934;-58
2021/06/08 05:13:42;;;;;;;6.95;5.56;;;;;;;;;;358710;148;858564;-58
2021/06/08 05:14:51;;;;;;;6.79;5.14;;;;;;;;;;358622;148;857294;-58
2021/06/08 05:15:52;;;;;;;7.61;5.33;;;;;;;;;;355186;150;859154;-58
2021/06/08 05:16:54;;;;;;;7.01;5.33;;;;;;;;;;358916;148;857406;-58
2021/06/08 05:17:56;;;;;;;6.37;5.21;;;;;;;;;;359170;149;857322;-58
2021/06/08 05:18:57;;;;;;;5.76;4.91;;;;;;;;;;358927;149;857727;-57
2021/06/08 05:19:59;;;;;;;8.31;5.57;;;;;;;;;;358573;148;857369;-57
2021/06/08 05:21:01;;;;;;;6.23;5.05;;;;;;;;;;357259;150;858827;-57
2021/06/08 05:22:04;;;;;;;6.89;5.29;;;;;;;;;;358506;148;859143;-56
2021/06/08 05:23:06;;;;;;;6.58;5.30;;;;;;;;;;351349;151;858250;-56
2021/06/08 05:24:09;;;;;;;5.95;4.34;;;;;;;;;;348521;152;858186;-58
2021/06/08 05:25:10;;;;;;;5.61;4.86;;;;;;;;;;347337;152;858155;-57
2021/06/08 05:26:13;;;;;;;5.80;4.85;;;;;;;;;;357559;148;859320;-58
2021/06/08 05:27:14;;;;;;;5.34;4.78;;;;;;;;;;357765;149;864919;-58
2021/06/08 05:28:16;;;;;;;7.42;4.71;;;;;;;;;;352245;151;857296;-58
2021/06/08 05:29:18;;;;;;;8.59;4.62;;;;;;;;;;358681;148;857275;-56
2021/06/08 05:30:21;;;;;;;6.29;4.79;;;;;;;;;;347872;149;858988;-56
2021/06/08 05:31:23;;;;;;;6.91;4.59;;;;;;;;;;350743;150;857239;-56
2021/06/08 05:32:25;;;;;;;6.52;4.74;;;;;;;;;;356981;150;859242;-56
2021/06/08 05:33:26;;;;;;;5.40;4.71;;;;;;;;;;357579;148;857306;-57
2021/06/08 05:34:28;;;;;;;5.09;4.62;;;;;;;;;;359285;148;857229;-58
2021/06/08 05:35:30;;;;;;;5.57;4.81;;;;;;;;;;358612;148;857368;-58
2021/06/08 05:36:32;;;;;;;5.61;4.39;;;;;;;;;;357404;148;857429;-57
2021/06/08 05:37:45;;;;;;;4.74;3.99;;;;;;;;;;358817;148;859255;-57
2021/06/08 05:38:46;;;;;;;8.28;4.57;;;;;;;;;;357859;149;857680;-58
2021/06/08 05:39:47;;;;;;;6.33;4.15;;;;;;;;;;358205;148;858705;-58
2021/06/08 05:40:49;;;;;;;4.55;3.76;;;;;;;;;;349886;153;864699;-58
2021/06/08 05:41:51;;;;;;;4.56;4.08;;;;;;;;;;358380;148;864876;-58
2021/06/08 05:42:52;;;;;;;7.21;4.71;;;;;;;;;;360289;148;858818;-57
2021/06/08 05:43:54;;;;;;;6.19;4.09;;;;;;;;;;359227;150;859175;-58
2021/06/08 05:44:56;;;;;;;6.24;4.56;;;;;;;;;;358773;148;859069;-58
2021/06/08 05:45:57;;;;;;;5.97;4.10;;;;;;;;;;357789;149;859105;-58
2021/06/08 05:46:59;;;;;;;6.40;4.45;;;;;;;;;;358038;148;859981;-57
2021/06/08 05:48:01;;;;;;;4.95;4.41;;;;;;;;;;357895;148;865516;-59
2021/06/08 05:49:03;;;;;;;4.91;4.45;;;;;;;;;;353788;150;858127;-58
2021/06/08 05:50:05;;;;;;;7.31;4.39;;;;;;;;;;357987;148;857307;-57
2021/06/08 05:51:07;;;;;;;6.45;4.59;;;;;;;;;;358673;148;857264;-58
2021/06/08 05:52:10;;;;;;;5.08;4.60;;;;;;;;;;357299;148;858574;-58
2021/06/08 05:53:12;;;;;;;6.91;4.75;;;;;;;;;;356138;148;858308;-58
2021/06/08 05:54:14;;;;;;;5.39;4.45;;;;;;;;;;358870;148;867056;-56
2021/06/08 05:55:15;;;;;;;5.22;4.01;;;;;;;;;;358262;149;857213;-57
2021/06/08 05:56:17;;;;;;;6.14;4.32;;;;;;;;;;357328;147;857473;-56
2021/06/08 05:57:19;;;;;;;8.61;4.16;;;;;;;;;;359086;148;857425;-57
2021/06/08 05:58:27;;;;;;;6.76;4.66;;;;;;;;;;355916;148;857241;-57
2021/06/08 05:59:29;;;;;;;5.75;4.22;;;;;;;;;;360163;148;858750;-57
2021/06/08 06:00:30;;;;;;;5.18;3.97;;;;;;;;;;358544;148;858795;-55
2021/06/08 06:01:32;;;;;;;6.69;4.63;;;;;;;;;;356468;150;857196;-57
2021/06/08 06:02:34;;;;;;;8.22;4.19;;;;;;;;;;357886;148;857489;-57
2021/06/08 06:03:35;;;;;;;4.47;4.06;;;;;;;;;;358779;150;857285;-58
2021/06/08 06:04:37;;;;;;;4.96;4.13;;;;;;;;;;358126;148;864810;-56
2021/06/08 06:05:38;;;;;;;6.17;3.47;;;;;;;;;;358467;148;859174;-57
2021/06/08 06:06:40;;;;;;;7.01;3.50;;;;;;;;;;358185;149;857471;-57
2021/06/08 06:07:42;;;;;;;4.76;3.51;;;;;;;;;;358154;148;865389;-58
2021/06/08 06:08:44;;;;;;;5.12;3.82;;;;;;;;;;359292;149;866319;-57
2021/06/08 06:09:45;;;;;;;5.13;4.01;;;;;;;;;;359118;150;857463;-57
2021/06/08 06:10:47;;;;;;;5.54;3.67;;;;;;;;;;358965;148;857865;-58
2021/06/08 06:11:51;;;;;;;4.87;4.02;;;;;;;;;;358477;148;865921;-57
2021/06/08 06:12:53;;;;;;;7.59;4.42;;;;;;;;;;357144;148;857246;-57
2021/06/08 06:13:59;;;;;;;7.60;3.64;;;;;;;;;;358227;148;859075;-56
2021/06/08 06:15:03;;;;;;;5.60;3.20;;;;;;;;;;358277;149;864904;-58
2021/06/08 06:31:33;;;;;;;4.69;2.59;;;;;;;20.44;52.49;99524.09;380106;139;881909;-59
2021/06/08 06:32:35;;;;;;;3.43;2.42;;;;;;;20.39;52.41;99528.75;371254;143;857640;-57
2021/06/08 06:33:41;;;;;;;3.45;2.63;;;;;;;20.50;52.37;99528.14;373800;141;857488;-57
2021/06/08 06:34:42;;;;;;;2.86;2.51;;;;;;;20.54;51.82;99530.52;373089;141;859118;-55
2021/06/08 06:35:44;;;;;;;5.45;2.99;;;;;;;20.61;52.92;99530.17;365190;144;865434;-57
2021/06/08 06:36:47;;;;;;;8.61;3.00;;;;;;;20.72;52.55;99530.41;367549;141;857901;-56
2021/06/08 06:37:51;;;;;;;6.99;3.25;;;;;;;20.79;52.33;99523.90;369095;141;859011;-57
2021/06/08 06:38:52;;;;;;;7.90;3.69;;;;;;;20.87;52.06;99531.37;370692;141;864951;-57
2021/06/08 06:39:54;;;;;;;5.24;3.06;;;;;;;20.93;52.10;99525.75;373132;144;864783;-57
2021/06/08 06:40:56;;;;;;;3.61;2.86;;;;;;;20.93;52.10;99525.75;365914;147;865507;-57
2021/06/08 06:42:00;;;;;;;4.12;3.18;;;;;;;;;;357503;147;857431;-57
2021/06/08 06:43:03;;;;;;;3.46;3.09;;;;;;;;;;359220;147;857351;-57
2021/06/08 06:44:04;;;;;;;3.78;3.01;;;;;;;;;;367265;141;857276;-56
2021/06/08 06:45:08;;;;;;;5.50;3.41;;;;;;;;;;370713;141;857252;-56
2021/06/08 06:46:11;;;;;;;6.07;3.16;;;;;;;;;;372612;144;866598;-59
2021/06/08 06:47:15;;;;;;;3.94;3.09;;;;;;;;;;369734;144;864819;-56
2021/06/08 06:48:16;;;;;;;5.51;2.82;;;;;;;;;;371893;144;866416;-56
2021/06/08 06:49:18;;;;;;;2.80;2.56;;;;;;;;;;372752;144;857369;-56
2021/06/08 06:50:24;;;;;;;4.74;2.61;;;;;;;;;;369611;142;860975;-58
2021/06/08 06:51:23;;;;;;;4.64;2.69;;;;;;;;;;367906;141;857379;-56
2021/06/08 06:52:25;;;;;;;4.39;2.75;;;;;;;;;;372261;144;857182;-57
2021/06/08 06:53:26;;;;;;;4.29;2.93;;;;;;;;;;371009;141;858220;-56
2021/06/08 06:54:30;;;;;;;4.24;3.12;;;;;;;;;;371223;141;860171;-57
2021/06/08 06:55:32;;;;;;;3.51;2.95;;;;;;;;;;372995;141;866177;-57
2021/06/08 06:56:34;;;;;;;3.91;2.96;;;;;;;;;;368687;139;856643;-56
2021/06/08 06:57:35;;;;;;;4.62;2.92;;;;;;;;;;381038;139;858949;-58
2021/06/08 06:58:37;;;;;;;4.33;3.16;;;;;;;;;;378497;138;859248;-56
2021/06/08 06:59:39;;;;;;;3.34;3.09;;;;;;;;;;371158;141;856551;-58
2021/06/08 07:00:41;;;;;;;4.34;2.97;;;;;;;;;;367995;144;856734;-57
2021/06/08 07:01:44;;;;;;;3.21;2.87;;;;;;;;;;380033;138;863905;-56
2021/06/08 07:02:45;;;;;;;5.57;3.23;;;;;;;;;;380391;139;857228;-57
2021/06/08 07:03:49;;;;;;;8.47;3.62;;;;;;;;;;379883;138;865596;-57
2021/06/08 07:04:51;;;;;;;5.48;3.83;;;;;;;;;;371995;142;859134;-57
2021/06/08 07:05:52;;;;;;;3.98;3.56;;;;;;;;;;380341;139;857224;-57
2021/06/08 07:06:54;;;;;;;4.75;3.81;;;;;;;;;;381227;137;865260;-56
2021/06/08 07:07:56;;;;;;;8.04;3.81;;;;;;;;;;379802;139;859073;-56
2021/06/08 07:08:58;;;;;;;5.93;3.28;;;;;;;;;;382105;137;864855;-55
2021/06/08 07:09:59;;;;;;;7.23;3.69;;;;;;;;;;390805;136;864864;-56
2021/06/08 07:11:01;;;;;;;5.45;3.65;;;;;;;;;;385876;137;858966;-56
2021/06/08 07:12:03;;;;;;;5.21;3.89;;;;;;;;;;386024;139;865846;-56
2021/06/08 07:13:06;;;;;;;7.22;4.42;;;;;;;;;;385524;138;865760;-56
2021/06/08 07:14:08;;;;;;;5.14;3.88;;;;;;;;;;385399;137;858596;-57
2021/06/08 07:15:10;;;;;;;6.80;4.08;;;;;;;;;;386225;139;859018;-57
2021/06/08 07:16:15;;;;;;;5.61;3.73;;;;;;;;;;386052;138;857274;-56
2021/06/08 07:17:17;;;;;;;6.23;3.95;;;;;;;;;;376398;143;858633;-57